createdAt,value
2023-01-19T00:00:38.168Z,33.30
2023-01-19T00:03:05.116Z,32.90
2023-01-19T00:05:33.128Z,33.00
2023-01-19T00:08:13.932Z,31.90
2023-01-19T00:10:45.060Z,30.30
2023-01-19T00:13:11.547Z,31.70
2023-01-19T00:15:37.517Z,30.30
2023-01-19T00:18:03.468Z,31.70
2023-01-19T00:20:31.444Z,31.50
2023-01-19T00:22:58.206Z,31.60
2023-01-19T00:25:24.426Z,32.40
2023-01-19T00:27:50.390Z,30.30
2023-01-19T00:30:16.662Z,33.00
2023-01-19T00:32:42.678Z,34.20
2023-01-19T00:35:08.824Z,30.10
2023-01-19T00:37:34.866Z,31.70
2023-01-19T00:40:00.914Z,30.90
2023-01-19T00:42:45.300Z,29.70
2023-01-19T00:45:13.796Z,34.40
2023-01-19T00:47:40.068Z,33.00
2023-01-19T00:50:08.099Z,30.80
2023-01-19T00:52:34.029Z,33.60
2023-01-19T00:54:59.987Z,31.20
2023-01-19T00:57:26.967Z,30.50
2023-01-19T00:59:52.881Z,34.90
2023-01-19T01:02:18.907Z,32.30
2023-01-19T01:04:44.925Z,35.40
2023-01-19T01:07:10.965Z,31.20
2023-01-19T01:09:36.835Z,32.50
2023-01-19T01:12:03.027Z,27.60
2023-01-19T01:14:29.078Z,26.60
2023-01-19T01:16:55.136Z,25.40
2023-01-19T01:19:21.328Z,25.00
2023-01-19T01:21:47.333Z,24.40
2023-01-19T01:24:13.360Z,27.30
2023-01-19T01:26:39.448Z,25.80
2023-01-19T01:29:05.857Z,30.60
2023-01-19T01:31:31.783Z,27.30
2023-01-19T01:33:57.722Z,25.40
2023-01-19T01:36:23.805Z,20.00
2023-01-19T01:38:50.252Z,23.80
2023-01-19T01:41:16.125Z,17.80
2023-01-19T01:43:44.990Z,16.40
2023-01-19T01:46:11.742Z,11.70
2023-01-19T01:48:40.468Z,12.40
2023-01-19T01:51:24.189Z,10.70
2023-01-19T01:54:06.499Z,9.60
2023-01-19T01:56:36.947Z,9.30
2023-01-19T01:59:07.412Z,9.40
2023-01-19T02:01:54.358Z,10.80
2023-01-19T02:04:22.655Z,10.60
2023-01-19T02:07:07.576Z,8.90
2023-01-19T02:09:54.614Z,8.50
2023-01-19T02:12:40.729Z,7.80
2023-01-19T02:15:15.432Z,8.10
2023-01-19T02:17:42.241Z,7.80
2023-01-19T02:20:10.095Z,7.10
2023-01-19T02:22:44.551Z,14.10
2023-01-19T02:25:10.544Z,17.90
2023-01-19T02:27:37.209Z,20.80
2023-01-19T02:30:04.264Z,25.80
2023-01-19T02:32:30.399Z,24.60
2023-01-19T02:34:57.096Z,27.10
2023-01-19T02:37:24.761Z,29.90
2023-01-19T02:40:01.150Z,26.00
2023-01-19T02:42:31.654Z,29.20
2023-01-19T02:44:57.564Z,32.60
2023-01-19T02:47:23.736Z,37.40
2023-01-19T02:50:00.527Z,32.80
2023-01-19T02:52:27.529Z,28.30
2023-01-19T02:55:19.927Z,34.40
2023-01-19T02:58:29.200Z,31.60
2023-01-19T03:01:28.483Z,34.10
2023-01-19T03:04:01.840Z,31.20
2023-01-19T03:06:44.057Z,31.40
2023-01-19T03:09:28.956Z,33.00
2023-01-19T03:12:04.435Z,34.40
2023-01-19T03:14:35.640Z,32.10
2023-01-19T03:17:05.113Z,30.60
2023-01-19T03:19:39.221Z,33.80
2023-01-19T03:24:39.535Z,33.10
2023-01-19T03:27:17.320Z,28.20
2023-01-19T03:29:50.310Z,28.80
2023-01-19T03:32:20.989Z,35.60
2023-01-19T03:34:50.469Z,27.40
2023-01-19T03:37:19.781Z,26.60
2023-01-19T03:39:45.990Z,27.00
2023-01-19T03:42:15.854Z,26.10
2023-01-19T03:44:44.859Z,25.70
2023-01-19T03:47:14.130Z,24.90
2023-01-19T03:49:44.482Z,27.40
2023-01-19T03:52:10.745Z,25.70
2023-01-19T03:54:36.911Z,31.40
2023-01-19T03:57:03.184Z,28.90
2023-01-19T03:59:29.186Z,32.60
2023-01-19T04:01:55.209Z,32.80
2023-01-19T04:04:21.135Z,34.90
2023-01-19T04:06:47.183Z,30.20
2023-01-19T04:09:13.211Z,31.20
2023-01-19T04:11:39.195Z,30.80
2023-01-19T04:14:05.510Z,30.60
2023-01-19T04:16:31.426Z,32.70
2023-01-19T04:18:57.358Z,30.90
2023-01-19T04:21:23.249Z,33.60
2023-01-19T04:23:49.294Z,32.40
2023-01-19T04:26:15.715Z,32.70
2023-01-19T04:28:42.204Z,33.50
2023-01-19T04:31:08.401Z,32.40
2023-01-19T04:33:34.524Z,29.30
2023-01-19T04:36:01.109Z,36.80
2023-01-19T04:38:27.390Z,30.50
2023-01-19T04:40:54.303Z,29.90
2023-01-19T04:43:21.897Z,30.70
2023-01-19T04:45:48.706Z,30.10
2023-01-19T04:48:15.338Z,31.60
2023-01-19T04:50:41.313Z,24.40
2023-01-19T04:53:08.066Z,26.70
2023-01-19T04:55:34.083Z,26.10
2023-01-19T04:58:00.101Z,29.50
2023-01-19T05:00:26.235Z,27.60
2023-01-19T05:02:53.095Z,25.10
2023-01-19T05:05:18.986Z,25.70
2023-01-19T05:07:45.021Z,24.60
2023-01-19T05:10:11.979Z,26.20
2023-01-19T05:12:38.291Z,22.90
2023-01-19T05:15:07.254Z,23.70
2023-01-19T05:17:33.890Z,25.80
2023-01-19T05:19:59.835Z,31.90
2023-01-19T05:22:25.856Z,27.40
2023-01-19T05:24:51.823Z,27.90
2023-01-19T05:27:17.749Z,26.20
2023-01-19T05:29:43.715Z,22.90
2023-01-19T05:32:10.108Z,24.80
2023-01-19T05:34:36.345Z,24.70
2023-01-19T05:37:02.423Z,20.90
2023-01-19T05:39:29.664Z,27.30
2023-01-19T05:41:55.563Z,25.50
2023-01-19T05:44:21.589Z,21.20
2023-01-19T05:46:47.672Z,21.10
2023-01-19T05:49:13.767Z,19.90
2023-01-19T05:51:44.508Z,17.50
2023-01-19T05:54:14.191Z,17.40
2023-01-19T05:56:41.096Z,19.50
2023-01-19T05:59:07.276Z,18.90
2023-01-19T06:01:34.952Z,20.10
2023-01-19T06:04:00.935Z,17.30
2023-01-19T06:06:26.875Z,11.70
2023-01-19T06:08:52.878Z,14.00
2023-01-19T06:11:19.620Z,17.10
2023-01-19T06:13:46.289Z,13.70
2023-01-19T06:16:12.359Z,11.50
2023-01-19T06:18:38.360Z,12.40
2023-01-19T06:21:06.754Z,15.20
2023-01-19T06:23:34.454Z,11.00
2023-01-19T06:28:27.446Z,8.80
2023-01-19T06:30:55.069Z,11.00
2023-01-19T06:35:48.628Z,5.40
2023-01-19T06:40:40.890Z,8.50
2023-01-19T06:43:07.857Z,11.10
2023-01-19T06:45:34.756Z,9.60
2023-01-19T06:48:02.409Z,7.90
2023-01-19T06:52:54.356Z,8.50
2023-01-19T06:55:20.479Z,5.20
2023-01-19T06:57:46.501Z,10.20
2023-01-19T07:00:14.210Z,9.00
2023-01-19T07:02:42.309Z,5.30
2023-01-19T07:05:09.750Z,4.10
2023-01-19T07:07:39.010Z,4.20
2023-01-19T07:10:07.559Z,3.40
2023-01-19T07:12:34.428Z,3.60
2023-01-19T07:15:00.829Z,4.60
2023-01-19T07:17:26.820Z,4.20
2023-01-19T07:19:52.770Z,4.50
2023-01-19T07:22:18.725Z,3.90
2023-01-19T07:24:44.652Z,3.30
2023-01-19T07:27:15.613Z,3.60
2023-01-19T07:29:41.635Z,3.60
2023-01-19T07:32:07.929Z,3.60
2023-01-19T07:34:34.034Z,4.00
2023-01-19T07:37:00.017Z,5.60
2023-01-19T07:39:26.070Z,6.40
2023-01-19T07:41:52.059Z,3.80
2023-01-19T07:44:18.225Z,3.20
2023-01-19T07:46:44.200Z,3.90
2023-01-19T07:49:10.998Z,4.10
2023-01-19T07:51:36.927Z,4.10
2023-01-19T07:54:03.065Z,4.60
2023-01-19T07:56:32.638Z,6.10
2023-01-19T07:58:58.800Z,3.30
2023-01-19T08:01:24.903Z,4.60
2023-01-19T08:03:51.126Z,2.80
2023-01-19T08:06:25.501Z,3.70
2023-01-19T08:08:51.409Z,3.10
2023-01-19T08:11:17.351Z,5.30
2023-01-19T08:13:43.265Z,5.90
2023-01-19T08:16:09.387Z,2.60
2023-01-19T08:18:35.489Z,2.60
2023-01-19T08:21:01.747Z,2.80
2023-01-19T08:23:28.025Z,2.20
2023-01-19T08:25:54.591Z,2.30
2023-01-19T08:28:21.254Z,2.10
2023-01-19T08:30:53.569Z,3.10
2023-01-19T08:33:26.802Z,1.90
2023-01-19T08:35:53.365Z,1.60
2023-01-19T08:38:19.937Z,1.60
2023-01-19T08:40:45.984Z,1.40
2023-01-19T08:43:16.657Z,2.00
2023-01-19T08:45:48.421Z,0.70
2023-01-19T08:48:16.308Z,1.80
2023-01-19T08:50:45.217Z,1.00
2023-01-19T08:53:11.175Z,0.80
2023-01-19T08:55:37.213Z,0.80
2023-01-19T08:58:04.620Z,1.30
2023-01-19T09:00:33.052Z,0.50
2023-01-19T09:03:02.849Z,0.70
2023-01-19T09:05:38.090Z,1.40
2023-01-19T09:08:09.283Z,0.80
2023-01-19T09:10:37.139Z,0.50
2023-01-19T09:13:07.735Z,1.30
2023-01-19T09:15:36.805Z,0.70
2023-01-19T09:18:05.080Z,0.70
2023-01-19T09:20:33.182Z,0.60
2023-01-19T09:22:59.216Z,0.90
2023-01-19T09:25:25.721Z,0.70
2023-01-19T09:27:52.383Z,1.30
2023-01-19T09:30:19.510Z,1.20
2023-01-19T09:32:45.794Z,0.70
2023-01-19T09:35:12.150Z,1.20
2023-01-19T09:37:38.173Z,0.70
2023-01-19T09:40:05.424Z,1.00
2023-01-19T09:42:47.423Z,0.80
2023-01-19T09:45:39.163Z,0.90
2023-01-19T09:48:18.533Z,0.50
2023-01-19T09:50:46.866Z,0.80
2023-01-19T09:53:41.157Z,1.30
2023-01-19T09:56:15.376Z,1.10
2023-01-19T10:01:21.030Z,0.80
2023-01-19T10:03:49.596Z,0.80
2023-01-19T10:06:16.829Z,0.90
2023-01-19T10:09:05.555Z,0.80
2023-01-19T10:11:52.944Z,0.80
2023-01-19T10:14:30.035Z,0.80
2023-01-19T10:17:07.054Z,0.60
2023-01-19T10:19:37.547Z,1.10
2023-01-19T10:22:18.054Z,0.80
2023-01-19T10:24:46.479Z,1.00
2023-01-19T10:27:18.336Z,1.10
2023-01-19T10:29:45.698Z,1.20
2023-01-19T10:32:22.933Z,0.70
2023-01-19T10:34:50.165Z,0.90
2023-01-19T10:37:36.263Z,1.20
2023-01-19T10:40:08.238Z,1.00
2023-01-19T10:42:35.296Z,1.30
2023-01-19T10:45:01.559Z,0.70
2023-01-19T10:47:36.291Z,0.50
2023-01-19T10:50:29.051Z,0.70
2023-01-19T10:52:58.354Z,1.00
2023-01-19T10:55:33.901Z,0.70
2023-01-19T10:58:00.785Z,0.80
2023-01-19T11:00:38.604Z,0.40
2023-01-19T11:03:32.674Z,0.70
2023-01-19T11:06:14.821Z,0.90
2023-01-19T11:08:43.006Z,0.80
2023-01-19T11:11:11.706Z,1.00
2023-01-19T11:13:42.965Z,0.80
2023-01-19T11:16:30.890Z,0.80
2023-01-19T11:19:02.741Z,0.70
2023-01-19T11:21:33.793Z,1.00
2023-01-19T11:26:47.459Z,1.10
2023-01-19T11:33:41.652Z,1.00
2023-01-19T11:36:47.963Z,0.90
2023-01-19T11:39:28.475Z,1.10
2023-01-19T11:42:25.450Z,1.70
2023-01-19T11:45:03.200Z,1.50
2023-01-19T11:47:37.863Z,1.80
2023-01-19T11:50:22.960Z,1.10
2023-01-19T11:52:55.145Z,0.60
2023-01-19T11:55:51.801Z,1.20
2023-01-19T11:58:19.924Z,1.00
2023-01-19T12:01:09.859Z,1.20
2023-01-19T12:03:46.030Z,1.10
2023-01-19T12:06:32.251Z,1.80
2023-01-19T12:09:12.881Z,1.30
2023-01-19T12:11:58.736Z,1.30
2023-01-19T12:14:46.679Z,2.00
2023-01-19T12:17:24.276Z,1.70
2023-01-19T12:20:20.071Z,1.60
2023-01-19T12:23:13.071Z,2.60
2023-01-19T12:25:47.862Z,2.30
2023-01-19T12:28:17.963Z,1.50
2023-01-19T12:30:44.312Z,2.10
2023-01-19T12:33:25.166Z,2.00
2023-01-19T12:36:03.979Z,1.00
2023-01-19T12:38:38.253Z,1.80
2023-01-19T12:44:12.526Z,1.10
2023-01-19T12:46:46.344Z,1.60
2023-01-19T12:49:15.242Z,1.40
2023-01-19T12:51:41.489Z,1.40
2023-01-19T12:54:18.926Z,1.70
2023-01-19T12:56:46.528Z,3.80
2023-01-19T12:59:25.324Z,3.30
2023-01-19T13:02:19.422Z,3.30
2023-01-19T13:05:24.193Z,3.20
2023-01-19T13:08:02.360Z,3.40
2023-01-19T13:10:59.398Z,3.40
2023-01-19T13:13:26.792Z,4.10
2023-01-19T13:15:55.856Z,6.10
2023-01-19T13:18:30.245Z,6.00
2023-01-19T13:21:04.645Z,5.50
2023-01-19T13:23:51.938Z,5.90
2023-01-19T13:26:24.179Z,3.60
2023-01-19T13:28:55.337Z,3.20
2023-01-19T13:31:23.421Z,2.70
2023-01-19T13:34:02.853Z,3.70
2023-01-19T13:37:16.036Z,3.30
2023-01-19T13:39:44.429Z,7.80
2023-01-19T13:42:38.244Z,4.60
2023-01-19T13:45:29.508Z,4.40
2023-01-19T13:47:59.384Z,4.20
2023-01-19T14:01:29.128Z,4.30
2023-01-19T14:03:55.898Z,6.70
2023-01-19T14:06:40.085Z,7.30
2023-01-19T14:09:19.278Z,9.90
2023-01-19T14:12:09.041Z,8.70
2023-01-19T14:14:53.356Z,5.50
2023-01-19T14:17:36.085Z,6.60
2023-01-19T14:20:02.191Z,3.70
2023-01-19T14:22:43.289Z,2.50
2023-01-19T14:25:32.983Z,2.80
2023-01-19T14:28:28.617Z,6.50
2023-01-19T14:30:57.686Z,3.30
2023-01-19T14:33:35.772Z,2.70
2023-01-19T14:36:25.330Z,3.50
2023-01-19T14:38:52.781Z,4.20
2023-01-19T14:41:27.821Z,4.90
2023-01-19T14:43:58.198Z,5.60
2023-01-19T14:46:24.889Z,6.60
2023-01-19T14:49:01.784Z,8.40
2023-01-19T14:51:30.855Z,8.00
2023-01-19T14:54:16.601Z,6.20
2023-01-19T14:56:42.669Z,5.00
2023-01-19T14:59:10.218Z,4.80
2023-01-19T15:01:38.994Z,4.30
2023-01-19T15:04:05.195Z,5.90
2023-01-19T15:06:33.084Z,3.80
2023-01-19T15:08:59.099Z,3.90
2023-01-19T15:11:29.879Z,3.40
2023-01-19T15:13:55.993Z,3.30
2023-01-19T15:16:26.167Z,3.60
2023-01-19T15:18:53.273Z,5.50
2023-01-19T15:21:29.481Z,4.80
2023-01-19T15:23:57.571Z,5.00
2023-01-19T15:26:25.831Z,4.70
2023-01-19T15:28:51.989Z,3.10
2023-01-19T15:31:21.001Z,3.10
2023-01-19T15:33:47.346Z,4.30
2023-01-19T15:36:17.836Z,5.00
2023-01-19T15:38:44.929Z,2.20
2023-01-19T15:41:18.436Z,2.60
2023-01-19T15:43:44.403Z,3.20
2023-01-19T15:46:14.897Z,2.70
2023-01-19T15:48:41.827Z,2.90
2023-01-19T15:51:16.794Z,3.50
2023-01-19T15:53:43.565Z,2.20
2023-01-19T15:56:22.675Z,1.80
2023-01-19T15:58:49.759Z,2.00
2023-01-19T16:01:31.704Z,1.50
2023-01-19T16:04:10.955Z,1.60
2023-01-19T16:09:36.741Z,1.40
2023-01-19T16:12:13.283Z,1.10
2023-01-19T16:14:45.515Z,0.80
2023-01-19T16:17:11.969Z,1.50
2023-01-19T16:19:42.237Z,1.20
2023-01-19T16:22:14.286Z,2.80
2023-01-19T16:28:31.693Z,5.00
2023-01-19T16:33:26.454Z,3.20
2023-01-19T16:35:52.452Z,4.10
2023-01-19T16:38:18.784Z,4.10
2023-01-19T16:40:45.956Z,3.80
2023-01-19T16:43:13.991Z,5.00
2023-01-19T16:45:58.460Z,4.90
2023-01-19T16:48:26.083Z,4.60
2023-01-19T16:50:59.975Z,5.90
2023-01-19T16:53:27.690Z,4.60
2023-01-19T16:55:53.800Z,5.00
2023-01-19T16:58:19.872Z,5.20
2023-01-19T17:00:45.908Z,4.00
2023-01-19T17:03:12.136Z,4.10
2023-01-19T17:05:38.151Z,5.10
2023-01-19T17:08:04.341Z,6.90
2023-01-19T17:10:30.274Z,9.70
2023-01-19T17:12:59.252Z,9.90
2023-01-19T17:15:25.226Z,12.10
2023-01-19T17:17:51.221Z,14.00
2023-01-19T17:20:20.231Z,11.40
2023-01-19T17:22:46.158Z,11.60
2023-01-19T17:25:12.183Z,8.20
2023-01-19T17:27:43.346Z,8.00
2023-01-19T17:30:10.283Z,7.60
2023-01-19T17:32:36.666Z,5.60
2023-01-19T17:35:04.768Z,6.00
2023-01-19T17:37:32.821Z,5.20
2023-01-19T17:40:01.700Z,3.50
2023-01-19T17:42:42.877Z,4.80
2023-01-19T17:45:11.970Z,3.60
2023-01-19T17:47:38.323Z,3.90
2023-01-19T17:50:05.033Z,4.00
2023-01-19T17:52:31.190Z,3.50
2023-01-19T17:54:57.953Z,6.70
2023-01-19T17:57:24.017Z,4.10
2023-01-19T17:59:50.033Z,4.20
2023-01-19T18:02:16.000Z,6.10
2023-01-19T18:04:42.164Z,7.40
2023-01-19T18:07:08.301Z,6.20
2023-01-19T18:09:34.255Z,6.30
2023-01-19T18:13:01.949Z,6.00
2023-01-19T18:15:10.954Z,4.70
2023-01-19T18:18:07.570Z,4.80
2023-01-19T18:20:37.087Z,4.40
2023-01-19T18:23:03.153Z,9.50
2023-01-19T18:25:40.226Z,7.50
2023-01-19T18:28:06.551Z,11.70
2023-01-19T18:30:40.153Z,9.60
2023-01-19T18:33:22.495Z,8.90
2023-01-19T18:35:56.137Z,9.50
2023-01-19T18:38:22.345Z,8.10
2023-01-19T18:40:48.499Z,10.40
2023-01-19T18:43:17.394Z,8.60
2023-01-19T18:45:53.242Z,8.20
2023-01-19T18:48:19.327Z,7.50
2023-01-19T18:50:45.821Z,7.10
2023-01-19T18:53:12.786Z,6.40
2023-01-19T18:55:39.725Z,9.00
2023-01-19T18:58:31.184Z,6.10
2023-01-19T19:01:01.842Z,8.20
2023-01-19T19:03:30.988Z,6.20
2023-01-19T19:06:06.554Z,8.50
2023-01-19T19:08:36.054Z,6.50
2023-01-19T19:11:02.097Z,6.90
2023-01-19T19:13:28.326Z,7.30
2023-01-19T19:16:03.011Z,8.20
2023-01-19T19:18:30.504Z,7.70
2023-01-19T19:21:27.550Z,8.30
2023-01-19T19:24:07.777Z,6.50
2023-01-19T19:26:37.742Z,8.80
2023-01-19T19:29:10.472Z,9.20
2023-01-19T19:31:58.705Z,10.40
2023-01-19T19:34:38.630Z,9.10
2023-01-19T19:37:24.247Z,8.90
2023-01-19T19:40:01.829Z,7.30
2023-01-19T19:47:01.738Z,9.10
2023-01-19T19:50:08.174Z,7.50
2023-01-19T20:00:36.904Z,6.80
2023-01-19T20:11:06.524Z,6.70
2023-01-19T20:11:12.227Z,9.70
2023-01-19T20:13:40.283Z,10.90
2023-01-19T20:20:07.395Z,8.30
2023-01-19T20:22:43.476Z,5.90
2023-01-19T20:27:48.098Z,8.10
2023-01-19T20:34:28.262Z,8.80
2023-01-19T20:49:04.731Z,16.00
2023-01-19T20:51:49.937Z,15.00
2023-01-19T20:54:29.942Z,10.00
2023-01-19T20:56:56.949Z,10.30
2023-01-19T20:59:23.623Z,7.40
2023-01-19T21:01:50.218Z,8.30
2023-01-19T21:04:16.941Z,6.80
2023-01-19T21:06:44.329Z,6.30
2023-01-19T21:09:11.201Z,6.00
2023-01-19T21:11:50.367Z,8.30
2023-01-19T21:14:18.024Z,9.60
2023-01-19T21:18:01.031Z,7.30
2023-01-19T21:20:44.195Z,6.70
2023-01-19T21:23:47.998Z,6.80
2023-01-19T21:26:18.554Z,7.60
2023-01-19T21:29:50.801Z,8.80
2023-01-19T21:35:11.325Z,6.70
2023-01-19T21:36:35.660Z,7.90
2023-01-19T21:40:59.252Z,7.80
2023-01-19T21:43:08.368Z,8.00
2023-01-19T21:45:42.918Z,7.30
2023-01-19T21:48:52.034Z,8.70
2023-01-19T21:52:06.473Z,8.30
2023-01-19T21:55:12.097Z,8.90
2023-01-19T21:57:40.945Z,6.70
2023-01-19T22:00:10.816Z,9.30
2023-01-19T22:02:38.926Z,8.70
2023-01-19T22:05:06.026Z,9.70
2023-01-19T22:07:37.560Z,8.50
2023-01-19T22:10:05.911Z,10.30
2023-01-19T22:16:14.672Z,8.30
2023-01-19T22:18:50.978Z,7.50
2023-01-19T22:21:22.399Z,8.80
2023-01-19T22:23:53.987Z,10.50
2023-01-19T22:26:21.874Z,9.00
2023-01-19T22:28:53.416Z,6.80
2023-01-19T22:31:19.774Z,9.60
2023-01-19T22:33:46.151Z,7.30
2023-01-19T22:36:26.967Z,24.30
2023-01-19T22:39:02.395Z,9.90
2023-01-19T22:41:34.907Z,18.40
2023-01-19T22:44:05.097Z,30.90
2023-01-19T22:46:38.762Z,20.60
2023-01-19T22:49:07.276Z,11.20
2023-01-19T22:51:34.907Z,9.00
2023-01-19T22:54:01.511Z,9.30
2023-01-19T22:56:30.684Z,10.10
2023-01-19T22:58:58.173Z,8.10
2023-01-19T23:01:32.771Z,8.50
2023-01-19T23:04:02.839Z,7.80
2023-01-19T23:06:32.393Z,7.40
2023-01-19T23:09:11.319Z,7.40
2023-01-19T23:11:42.375Z,10.10
2023-01-19T23:14:15.186Z,11.70
2023-01-19T23:16:51.480Z,12.20
2023-01-19T23:19:39.625Z,9.90
2023-01-19T23:22:08.294Z,8.30
2023-01-19T23:24:36.615Z,8.90
2023-01-19T23:27:11.219Z,10.40
2023-01-19T23:29:43.967Z,8.40
2023-01-19T23:32:10.412Z,9.30
2023-01-19T23:38:14.390Z,11.50
2023-01-19T23:40:23.258Z,12.60
2023-01-19T23:42:49.599Z,10.30
2023-01-19T23:45:15.882Z,8.50
2023-01-19T23:47:47.541Z,11.00
2023-01-19T23:50:14.095Z,10.30
2023-01-19T23:59:08.202Z,9.80
